Time;durP1;ratioP1;P1;durP2;ratioP2;P2;SDS_P1;SDS_P2;PMS_P1;PMS_P2;Temp;Humidity;BMP_temperature;BMP_pressure;BME280_temperature;BME280_humidity;BME280_pressure;Samples;Min_cycle;Max_cycle;Signal;HPM_P1;HPM_P2
2021/10/25 00:01:51;;;;;;;8.57;3.40;;;;;;;;;;5034827;28;20060;-92
2021/10/25 00:04:16;;;;;;;12.53;3.90;;;;;;;;;;5068590;28;20033;-91
2021/10/25 00:06:42;;;;;;;7.00;3.47;;;;;;;;;;5038953;28;20109;-91
2021/10/25 00:09:07;;;;;;;8.75;3.45;;;;;;;;;;5071836;28;20029;-91
2021/10/25 00:11:33;;;;;;;7.18;3.67;;;;;;;;;;5039685;28;20021;-92
2021/10/25 00:13:58;;;;;;;11.52;3.78;;;;;;;;;;5038777;28;20025;-91
2021/10/25 00:16:23;;;;;;;6.45;3.25;;;;;;;;;;5072236;28;20030;-91
2021/10/25 00:18:48;;;;;;;10.50;3.65;;;;;;;;;;5037940;28;20381;-91
2021/10/25 00:21:14;;;;;;;8.98;4.32;;;;;;;;;;5038974;28;20388;-91
2021/10/25 00:23:39;;;;;;;12.10;3.97;;;;;;;;;;5071207;28;20022;-91
2021/10/25 00:26:05;;;;;;;8.00;3.50;;;;;;;;;;5065280;28;20022;-92
2021/10/25 00:28:30;;;;;;;15.75;4.07;;;;;;;;;;5029633;28;20029;-91
2021/10/25 00:30:55;;;;;;;9.43;3.78;;;;;;;;;;5070676;28;20033;-91
2021/10/25 00:33:20;;;;;;;12.25;4.38;;;;;;;;;;5037215;28;20013;-91
2021/10/25 00:35:46;;;;;;;10.20;4.22;;;;;;;;;;5037437;28;20025;-91
2021/10/25 00:38:11;;;;;;;6.00;3.40;;;;;;;;;;5067185;28;20457;-91
2021/10/25 00:40:37;;;;;;;12.23;4.03;;;;;;;;;;5027296;28;20181;-91
2021/10/25 00:43:02;;;;;;;7.35;4.00;;;;;;;;;;5070659;28;20108;-91
2021/10/25 00:45:27;;;;;;;9.18;3.60;;;;;;;;;;5038351;28;20022;-91
2021/10/25 00:47:52;;;;;;;7.18;3.88;;;;;;;;;;5039150;28;20009;-91
2021/10/25 00:50:18;;;;;;;13.57;3.88;;;;;;;;;;5061132;28;20056;-91
2021/10/25 00:52:43;;;;;;;8.57;3.53;;;;;;;;;;5071239;28;20022;-91
2021/10/25 00:55:09;;;;;;;11.20;3.35;;;;;;;;;;5070588;28;20018;-92
2021/10/25 00:57:35;;;;;;;11.52;4.03;;;;;;;;;;5038765;28;20061;-92
2021/10/25 01:00:01;;;;;;;7.50;3.65;;;;;;;;;;5069801;28;20022;-91
2021/10/25 01:02:26;;;;;;;7.07;3.53;;;;;;;;;;5037023;28;20150;-92
2021/10/25 01:04:51;;;;;;;10.50;4.03;;;;;;;;;;5036820;28;20456;-91
2021/10/25 01:07:17;;;;;;;11.60;3.45;;;;;;;;;;5036686;28;20013;-92
2021/10/25 01:09:42;;;;;;;8.93;3.70;;;;;;;;;;5069972;28;20009;-92
2021/10/25 01:12:07;;;;;;;9.48;3.65;;;;;;;;;;5037242;28;20113;-91
2021/10/25 01:14:32;;;;;;;10.00;3.90;;;;;;;;;;5036972;28;20108;-91
2021/10/25 01:16:57;;;;;;;7.05;3.65;;;;;;;;;;5068374;28;20052;-92
2021/10/25 01:19:23;;;;;;;7.18;3.30;;;;;;;;;;5056730;28;20021;-91
2021/10/25 01:21:48;;;;;;;8.27;3.83;;;;;;;;;;5036138;28;20029;-91
2021/10/25 01:24:13;;;;;;;9.75;3.50;;;;;;;;;;5036097;28;20120;-92
2021/10/25 01:26:39;;;;;;;9.82;3.92;;;;;;;;;;5060216;28;20032;-91
2021/10/25 01:29:04;;;;;;;7.90;3.65;;;;;;;;;;5069706;28;20068;-91
2021/10/25 01:31:30;;;;;;;8.82;3.75;;;;;;;;;;5037118;28;20021;-91
2021/10/25 01:33:55;;;;;;;12.30;4.03;;;;;;;;;;5069534;28;20029;-91
2021/10/25 01:36:21;;;;;;;8.63;3.83;;;;;;;;;;5069417;28;20056;-92
2021/10/25 01:38:47;;;;;;;7.53;3.53;;;;;;;;;;5069231;28;20045;-91
2021/10/25 01:41:12;;;;;;;14.35;3.85;;;;;;;;;;5069171;28;20025;-92
2021/10/25 01:43:37;;;;;;;7.72;3.38;;;;;;;;;;5069709;28;20079;-91
2021/10/25 01:46:03;;;;;;;6.15;3.30;;;;;;;;;;5068871;28;20014;-91
2021/10/25 01:48:28;;;;;;;11.70;3.63;;;;;;;;;;5032017;28;20022;-91
2021/10/25 01:50:53;;;;;;;6.68;3.35;;;;;;;;;;5025984;28;20014;-92
2021/10/25 01:53:18;;;;;;;9.02;3.95;;;;;;;;;;5059815;28;20022;-91
2021/10/25 01:55:45;;;;;;;7.22;4.05;;;;;;;;;;5036663;28;20009;-91
2021/10/25 01:58:10;;;;;;;7.55;3.55;;;;;;;;;;5061695;28;20425;-92
2021/10/25 02:00:36;;;;;;;12.23;3.67;;;;;;;;;;5068798;28;20115;-91
2021/10/25 02:03:01;;;;;;;9.73;3.65;;;;;;;;;;5035320;28;20060;-91
2021/10/25 02:05:26;;;;;;;7.88;3.58;;;;;;;;;;5035522;28;20133;-91
2021/10/25 02:07:52;;;;;;;7.75;3.13;;;;;;;;;;5035680;28;20068;-91
2021/10/25 02:10:17;;;;;;;10.55;4.05;;;;;;;;;;5055809;28;20076;-92
2021/10/25 02:12:42;;;;;;;5.70;3.17;;;;;;;;;;5036058;28;20006;-91
2021/10/25 02:15:08;;;;;;;8.45;3.72;;;;;;;;;;5057262;28;20465;-91
2021/10/25 02:17:33;;;;;;;9.05;3.63;;;;;;;;;;5031900;28;20055;-91
2021/10/25 02:19:58;;;;;;;7.13;3.45;;;;;;;;;;5035879;28;20071;-93
2021/10/25 02:22:24;;;;;;;11.60;3.78;;;;;;;;;;5068025;28;20465;-90
2021/10/25 02:24:49;;;;;;;10.00;3.80;;;;;;;;;;5035602;28;20024;-91
2021/10/25 02:27:14;;;;;;;9.50;4.05;;;;;;;;;;5036275;28;20017;-92
2021/10/25 02:29:40;;;;;;;8.27;3.95;;;;;;;;;;5067729;28;20014;-91
2021/10/25 02:32:09;;;;;;;8.23;4.00;;;;;;;;;;5068120;28;20025;-91
2021/10/25 02:34:35;;;;;;;5.68;3.17;;;;;;;;;;5034525;28;20461;-92
2021/10/25 02:37:00;;;;;;;8.73;3.80;;;;;;;;;;5034386;28;20083;-91
2021/10/25 02:39:28;;;;;;;8.40;4.00;;;;;;;;;;5034643;28;20071;-91
2021/10/25 02:41:54;;;;;;;6.68;3.47;;;;;;;;;;5067756;28;20028;-91
2021/10/25 02:44:19;;;;;;;7.18;3.03;;;;;;;;;;5034544;28;20029;-92
2021/10/25 02:46:44;;;;;;;9.48;3.33;;;;;;;;;;5034412;28;20025;-91
2021/10/25 02:49:09;;;;;;;6.50;3.30;;;;;;;;;;5067954;28;20021;-91
2021/10/25 02:51:34;;;;;;;8.52;3.10;;;;;;;;;;5034366;28;20021;-91
2021/10/25 02:54:00;;;;;;;6.65;2.95;;;;;;;;;;5067532;28;20050;-91
2021/10/25 02:56:25;;;;;;;8.60;3.25;;;;;;;;;;5034437;28;20029;-91
2021/10/25 02:58:51;;;;;;;8.10;3.60;;;;;;;;;;5034573;28;20112;-91
2021/10/25 03:01:16;;;;;;;8.45;3.42;;;;;;;;;;5035584;28;20032;-91
2021/10/25 03:03:43;;;;;;;6.97;3.58;;;;;;;;;;5068222;28;20025;-91
2021/10/25 03:06:08;;;;;;;9.35;3.95;;;;;;;;;;5031269;28;20056;-91
2021/10/25 03:08:33;;;;;;;7.38;3.10;;;;;;;;;;5033083;28;20044;-92
2021/10/25 03:10:58;;;;;;;6.95;3.50;;;;;;;;;;5021801;28;20488;-92
2021/10/25 03:13:24;;;;;;;5.82;2.95;;;;;;;;;;5068065;28;20072;-91
2021/10/25 03:15:50;;;;;;;8.75;3.58;;;;;;;;;;5034150;28;20083;-92
2021/10/25 03:18:15;;;;;;;7.53;3.20;;;;;;;;;;5034329;28;20045;-91
2021/10/25 03:20:41;;;;;;;10.40;3.78;;;;;;;;;;5035265;28;20025;-91
2021/10/25 03:23:07;;;;;;;6.72;3.00;;;;;;;;;;5025930;28;20052;-91
2021/10/25 03:25:32;;;;;;;10.30;3.55;;;;;;;;;;5028218;28;20025;-91
2021/10/25 03:27:57;;;;;;;7.07;3.35;;;;;;;;;;5021371;28;20069;-92
2021/10/25 03:30:22;;;;;;;7.35;3.40;;;;;;;;;;5034318;28;20029;-91
2021/10/25 03:32:51;;;;;;;6.00;3.00;;;;;;;;;;5035257;28;20021;-92
2021/10/25 03:35:16;;;;;;;10.27;3.83;;;;;;;;;;5056401;28;20075;-92
2021/10/25 03:37:41;;;;;;;8.53;3.90;;;;;;;;;;5031072;28;20034;-92
2021/10/25 03:40:08;;;;;;;6.60;3.20;;;;;;;;;;5025706;28;20025;-92
2021/10/25 03:42:40;;;;;;;6.45;3.17;;;;;;;;;;5032993;28;20061;-91
2021/10/25 03:45:20;;;;;;;5.70;3.20;;;;;;;;;;5037724;28;20116;-91
2021/10/25 03:48:00;;;;;;;10.73;3.30;;;;;;;;;;5037837;28;20095;-91
2021/10/25 03:50:29;;;;;;;8.45;4.00;;;;;;;;;;5037946;28;20464;-91
2021/10/25 03:55:43;;;;;;;8.32;3.15;;;;;;;;;;5029943;28;20118;-91
2021/10/25 04:27:23;;;;;;;5.93;3.13;;;;;;;;;;5038688;28;20492;-92
2021/10/25 04:29:49;;;;;;;9.25;3.28;;;;;;;;;;5018292;28;20472;-92
2021/10/25 04:32:14;;;;;;;6.22;3.15;;;;;;;;;;5051208;28;20109;-92
2021/10/25 04:34:40;;;;;;;5.15;2.97;;;;;;;;;;5070153;28;20048;-91
2021/10/25 04:37:05;;;;;;;5.50;2.97;;;;;;;;;;5037555;28;20030;-91
2021/10/25 04:39:30;;;;;;;9.43;3.30;;;;;;;;;;5037588;28;20014;-91
2021/10/25 04:41:55;;;;;;;11.32;2.85;;;;;;;;;;5064592;28;20022;-91
2021/10/25 04:44:20;;;;;;;7.82;3.00;;;;;;;;;;5034881;28;20063;-91
2021/10/25 04:46:46;;;;;;;8.43;3.30;;;;;;;;;;5063267;28;20022;-91
2021/10/25 04:49:11;;;;;;;12.65;3.13;;;;;;;;;;5031370;28;20021;-92
2021/10/25 04:51:36;;;;;;;7.53;3.40;;;;;;;;;;5037057;28;20024;-91
2021/10/25 04:54:02;;;;;;;5.45;3.08;;;;;;;;;;5062987;28;20022;-91
2021/10/25 04:56:27;;;;;;;8.02;3.15;;;;;;;;;;5036075;28;20385;-91
2021/10/25 04:58:53;;;;;;;6.78;3.30;;;;;;;;;;5027665;28;20018;-91
2021/10/25 05:01:18;;;;;;;6.60;3.40;;;;;;;;;;5032264;28;20021;-91
2021/10/25 05:03:43;;;;;;;6.68;3.17;;;;;;;;;;5025679;28;20018;-91
2021/10/25 05:06:15;;;;;;;6.65;3.03;;;;;;;;;;5037521;28;20032;-91
2021/10/25 05:08:41;;;;;;;;;;;;;;;;;;5039233;28;20017;-92
2021/10/25 05:11:06;;;;;;;8.20;2.80;;;;;;;;;;5063091;28;19905;-92
2021/10/25 05:13:31;;;;;;;6.32;3.00;;;;;;;;;;5031915;28;20743;-91
2021/10/25 05:15:56;;;;;;;7.32;3.00;;;;;;;;;;5071204;28;20029;-92
2021/10/25 05:18:22;;;;;;;5.45;2.90;;;;;;;;;;5038373;28;20018;-91
2021/10/25 05:20:47;;;;;;;6.13;3.20;;;;;;;;;;5057317;28;20071;-91
2021/10/25 05:23:12;;;;;;;7.97;2.95;;;;;;;;;;5037931;28;20029;-91
2021/10/25 05:25:37;;;;;;;5.68;2.70;;;;;;;;;;5057331;28;20025;-91
2021/10/25 05:28:03;;;;;;;5.70;2.95;;;;;;;;;;5039658;28;20017;-92
2021/10/25 05:30:28;;;;;;;11.05;3.28;;;;;;;;;;5042172;28;20013;-93
2021/10/25 05:32:53;;;;;;;6.90;2.65;;;;;;;;;;5040694;28;20032;-92
2021/10/25 05:35:18;;;;;;;10.05;2.80;;;;;;;;;;5034730;28;20040;-91
2021/10/25 05:37:43;;;;;;;7.93;3.00;;;;;;;;;;5036057;28;20028;-92
2021/10/25 05:40:09;;;;;;;5.07;2.72;;;;;;;;;;5040854;28;20353;-92
2021/10/25 05:42:34;;;;;;;4.13;2.35;;;;;;;;;;5073025;28;20075;-91
2021/10/25 05:45:01;;;;;;;6.22;2.80;;;;;;;;;;5040173;28;20048;-91
2021/10/25 05:47:27;;;;;;;7.18;2.20;;;;;;;;;;5039909;28;20026;-92
2021/10/25 05:49:52;;;;;;;6.45;2.90;;;;;;;;;;5039437;28;20156;-92
2021/10/25 05:52:17;;;;;;;7.85;3.03;;;;;;;;;;5056049;28;20100;-92
2021/10/25 05:54:43;;;;;;;6.85;2.42;;;;;;;;;;5041165;28;20077;-92
2021/10/25 05:57:08;;;;;;;6.65;2.83;;;;;;;;;;5043870;28;20060;-92
2021/10/25 05:59:34;;;;;;;10.25;2.70;;;;;;;;;;5061962;28;20029;-92
2021/10/25 06:04:34;;;;;;;8.20;2.63;;;;;;;;;;5034498;28;20495;-93
2021/10/25 06:06:59;;;;;;;7.97;2.83;;;;;;;;;;5043213;28;20037;-93
2021/10/25 06:09:27;;;;;;;10.23;2.80;;;;;;;;;;5074472;28;20017;-91
2021/10/25 06:11:52;;;;;;;4.85;2.85;;;;;;;;;;5052947;28;20021;-91
2021/10/25 06:14:26;;;;;;;5.80;2.50;;;;;;;;;;5038296;28;20465;-92
2021/10/25 06:16:57;;;;;;;4.78;2.53;;;;;;;;;;5037214;28;20017;-92
2021/10/25 06:19:22;;;;;;;6.65;2.72;;;;;;;;;;5063770;28;20045;-92
2021/10/25 06:21:48;;;;;;;5.28;2.75;;;;;;;;;;5040314;28;20025;-91
2021/10/25 06:24:13;;;;;;;7.03;2.92;;;;;;;;;;5036627;28;20025;-92
2021/10/25 06:26:38;;;;;;;7.93;3.17;;;;;;;;;;5036451;28;20028;-94
2021/10/25 06:29:03;;;;;;;12.23;3.97;;;;;;;;;;5063959;28;20034;-93
2021/10/25 06:31:28;;;;;;;8.85;4.07;;;;;;;;;;5021620;28;20021;-91
2021/10/25 06:33:54;;;;;;;7.70;3.38;;;;;;;;;;5033226;28;20453;-92
2021/10/25 06:36:21;;;;;;;12.20;3.85;;;;;;;;;;5052657;28;20006;-91
2021/10/25 06:41:15;;;;;;;10.55;3.65;;;;;;;;;;5034539;28;20092;-92
2021/10/25 06:43:40;;;;;;;10.60;3.65;;;;;;;;;;5066457;28;20048;-92
2021/10/25 06:46:06;;;;;;;6.07;2.83;;;;;;;;;;5031781;28;20021;-92
2021/10/25 06:48:31;;;;;;;11.85;3.17;;;;;;;;;;5021717;28;20044;-92
2021/10/25 06:50:57;;;;;;;7.40;3.65;;;;;;;;;;5032899;28;20022;-92
2021/10/25 06:53:22;;;;;;;9.95;3.70;;;;;;;;;;5033077;28;20026;-91
2021/10/25 06:55:47;;;;;;;13.38;3.58;;;;;;;;;;5034115;28;20085;-92
2021/10/25 06:58:13;;;;;;;7.10;3.17;;;;;;;;;;5066282;28;20021;-92
2021/10/25 07:00:38;;;;;;;8.45;2.80;;;;;;;;;;5066333;28;20047;-92
2021/10/25 07:03:03;;;;;;;4.43;2.58;;;;;;;;;;5030910;28;20022;-92
2021/10/25 07:05:35;;;;;;;4.97;3.00;;;;;;;;;;5021152;28;20018;-92
2021/10/25 07:08:00;;;;;;;5.85;2.47;;;;;;;;;;5055268;28;20466;-92
2021/10/25 07:10:26;;;;;;;8.25;3.20;;;;;;;;;;5029674;28;20040;-91
2021/10/25 07:12:52;;;;;;;5.57;2.35;;;;;;;;;;5066284;28;20013;-91
2021/10/25 07:15:18;;;;;;;7.13;2.72;;;;;;;;;;5033675;28;20449;-91
2021/10/25 07:17:52;;;;;;;7.88;2.38;;;;;;;;;;5037987;28;20013;-91
2021/10/25 07:23:21;;;;;;;5.28;2.55;;;;;;;;;;5025593;28;20021;-92
2021/10/25 08:06:58;;;;;;;6.93;2.85;;;;;;;;;;5032920;28;20086;-92
2021/10/25 08:10:00;;;;;;;7.68;3.08;;;;;;;;;;5069397;28;20021;-92
2021/10/25 08:12:17;;;;;;;5.72;2.80;;;;;;;;;;5030061;28;20030;-92
2021/10/25 08:14:49;;;;;;;6.63;2.80;;;;;;;;;;5026135;28;20124;-92
2021/10/25 08:17:19;;;;;;;9.98;2.70;;;;;;;;;;5068923;28;20088;-92
2021/10/25 08:19:44;;;;;;;6.10;3.03;;;;;;;;;;5069060;28;20028;-91
2021/10/25 08:22:11;;;;;;;6.78;2.88;;;;;;;;;;5069022;28;20021;-92
2021/10/25 08:24:41;;;;;;;14.02;3.60;;;;;;;;;;5068888;28;20022;-92
2021/10/25 08:27:07;;;;;;;8.55;3.05;;;;;;;;;;5066772;28;20084;-91
2021/10/25 08:29:33;;;;;;;9.73;3.30;;;;;;;;;;5035086;28;20528;-91
2021/10/25 08:33:06;;;;;;;5.10;2.85;;;;;;;;;;5068541;28;20021;-92
2021/10/25 08:35:05;;;;;;;9.07;3.22;;;;;;;;;;5020247;28;20029;-92
2021/10/25 08:40:02;;;;;;;6.68;2.92;;;;;;;;;;5036525;28;20065;-92
2021/10/25 08:42:29;;;;;;;6.47;3.10;;;;;;;;;;5036310;28;20071;-91
2021/10/25 08:45:18;;;;;;;7.13;3.33;;;;;;;;;;5068651;28;20075;-92
2021/10/25 08:47:44;;;;;;;7.13;2.60;;;;;;;;;;5036205;28;20108;-92
2021/10/25 08:50:11;;;;;;;6.68;2.60;;;;;;;;;;5035164;28;20390;-92
2021/10/25 08:52:37;;;;;;;8.40;2.40;;;;;;;;;;5036271;28;20021;-92
2021/10/25 08:55:04;;;;;;;5.15;2.50;;;;;;;;;;5068295;28;20022;-92
2021/10/25 08:57:29;;;;;;;10.13;3.45;;;;;;;;;;5060602;28;20033;-91
2021/10/25 08:59:59;;;;;;;4.97;2.58;;;;;;;;;;5029756;28;20386;-92
2021/10/25 09:02:24;;;;;;;7.78;2.85;;;;;;;;;;5025811;28;20496;-92
2021/10/25 09:04:58;;;;;;;6.35;2.75;;;;;;;;;;5068089;28;20021;-92
2021/10/25 09:07:24;;;;;;;6.15;2.28;;;;;;;;;;5034828;28;20097;-92
2021/10/25 09:09:49;;;;;;;6.85;2.63;;;;;;;;;;5034926;28;20500;-92
2021/10/25 09:12:15;;;;;;;8.13;2.60;;;;;;;;;;5035774;28;20039;-92
2021/10/25 09:14:41;;;;;;;10.18;3.15;;;;;;;;;;5034879;28;20481;-92
2021/10/25 09:17:07;;;;;;;8.27;2.97;;;;;;;;;;5034274;28;20101;-91
2021/10/25 09:19:33;;;;;;;13.40;3.08;;;;;;;;;;5034572;28;20428;-92
2021/10/25 09:22:05;;;;;;;7.60;3.08;;;;;;;;;;5034430;28;20037;-92
2021/10/25 09:24:30;;;;;;;5.47;2.63;;;;;;;;;;5037973;28;20025;-91
2021/10/25 09:26:58;;;;;;;9.07;3.53;;;;;;;;;;5035605;28;20499;-92
2021/10/25 09:29:24;;;;;;;6.20;2.78;;;;;;;;;;5067765;28;20017;-93
2021/10/25 09:31:57;;;;;;;7.18;3.72;;;;;;;;;;5067733;28;20021;-92
2021/10/25 09:34:23;;;;;;;;;;;;;;;;;;5034650;28;20029;-92
2021/10/25 09:36:52;;;;;;;8.10;2.67;;;;;;;;;;5047890;28;19910;-92
2021/10/25 09:39:43;;;;;;;10.38;3.03;;;;;;;;;;5049909;28;20026;-93
2021/10/25 09:50:18;;;;;;;4.15;2.40;;;;;;;;;;5027091;28;20060;-92
2021/10/25 09:52:43;;;;;;;6.95;2.60;;;;;;;;;;5029997;28;20025;-91
2021/10/25 09:55:11;;;;;;;7.70;2.80;;;;;;;;;;5067196;28;20417;-92
2021/10/25 10:00:09;;;;;;;7.43;2.78;;;;;;;;;;5035147;28;20030;-92
2021/10/25 10:02:35;;;;;;;5.70;2.30;;;;;;;;;;5055157;28;20030;-93
2021/10/25 10:05:03;;;;;;;10.15;3.00;;;;;;;;;;5032646;28;20072;-92
2021/10/25 10:07:29;;;;;;;5.10;2.60;;;;;;;;;;5033891;28;20420;-92
2021/10/25 10:09:55;;;;;;;8.23;2.83;;;;;;;;;;5033774;28;20104;-92
2021/10/25 10:12:21;;;;;;;6.40;2.83;;;;;;;;;;5034665;28;20043;-91
2021/10/25 10:14:49;;;;;;;10.07;2.88;;;;;;;;;;5033614;28;20072;-92
2021/10/25 10:17:17;;;;;;;6.60;2.70;;;;;;;;;;5065861;28;20030;-92
2021/10/25 10:19:43;;;;;;;8.88;2.47;;;;;;;;;;5033444;28;20473;-92
2021/10/25 10:22:09;;;;;;;7.80;2.22;;;;;;;;;;5066604;28;20032;-92
2021/10/25 10:24:35;;;;;;;9.95;2.72;;;;;;;;;;5066741;28;20029;-92
2021/10/25 10:27:05;;;;;;;4.68;2.47;;;;;;;;;;5066834;28;20100;-91
2021/10/25 10:29:37;;;;;;;7.72;2.72;;;;;;;;;;5033214;28;20013;-92
2021/10/25 10:32:05;;;;;;;6.28;2.90;;;;;;;;;;5066670;28;20022;-91
2021/10/25 10:34:41;;;;;;;5.45;2.65;;;;;;;;;;5033248;28;20014;-93
2021/10/25 10:37:19;;;;;;;5.97;2.58;;;;;;;;;;5066577;28;20021;-92
2021/10/25 10:39:56;;;;;;;8.80;2.88;;;;;;;;;;5023441;28;20442;-91
2021/10/25 10:42:26;;;;;;;4.97;2.72;;;;;;;;;;5033427;28;20438;-91
2021/10/25 10:45:09;;;;;;;8.10;2.83;;;;;;;;;;5033021;28;20017;-92
2021/10/25 10:47:42;;;;;;;6.53;2.70;;;;;;;;;;5028930;28;20063;-91
2021/10/25 10:50:18;;;;;;;7.30;2.80;;;;;;;;;;5034296;28;20022;-91
2021/10/25 10:52:48;;;;;;;6.38;2.85;;;;;;;;;;5037819;28;20060;-91
2021/10/25 10:55:19;;;;;;;5.60;3.05;;;;;;;;;;5032982;28;20109;-91
2021/10/25 11:00:20;;;;;;;7.88;3.17;;;;;;;;;;5034406;28;20033;-91
2021/10/25 11:03:09;;;;;;;6.03;2.60;;;;;;;;;;5062727;28;20420;-91
2021/10/25 11:05:39;;;;;;;8.15;2.80;;;;;;;;;;5037868;28;20112;-91
2021/10/25 11:08:04;;;;;;;5.95;2.85;;;;;;;;;;5033006;28;20028;-91
2021/10/25 11:10:32;;;;;;;5.78;2.92;;;;;;;;;;5032854;28;20461;-91
2021/10/25 11:13:02;;;;;;;6.32;2.95;;;;;;;;;;5032850;28;20025;-91
2021/10/25 11:15:35;;;;;;;7.15;2.88;;;;;;;;;;5032721;28;20112;-91
2021/10/25 11:18:04;;;;;;;7.80;2.58;;;;;;;;;;5032795;28;20116;-91
2021/10/25 11:20:29;;;;;;;5.15;2.40;;;;;;;;;;5033612;28;20044;-91
2021/10/25 11:23:01;;;;;;;4.70;2.78;;;;;;;;;;5033784;28;20017;-91
2021/10/25 11:25:26;;;;;;;6.47;2.92;;;;;;;;;;5032585;28;20033;-91
2021/10/25 11:27:53;;;;;;;4.43;2.50;;;;;;;;;;5065851;28;20032;-92
2021/10/25 11:30:18;;;;;;;7.30;2.38;;;;;;;;;;5032723;28;20025;-91
2021/10/25 11:32:44;;;;;;;4.95;2.63;;;;;;;;;;5065733;28;20018;-91
2021/10/25 11:35:13;;;;;;;13.18;2.70;;;;;;;;;;5033720;28;20062;-91
2021/10/25 11:37:40;;;;;;;5.03;2.50;;;;;;;;;;5029594;28;20024;-91
2021/10/25 11:40:08;;;;;;;5.07;2.63;;;;;;;;;;5021753;28;20473;-91
2021/10/25 11:42:39;;;;;;;5.45;2.53;;;;;;;;;;5065820;28;20025;-91
2021/10/25 11:45:10;;;;;;;5.10;2.50;;;;;;;;;;5029224;28;20465;-91
2021/10/25 11:47:37;;;;;;;6.93;2.63;;;;;;;;;;5027132;28;20025;-91
2021/10/25 11:50:16;;;;;;;6.45;2.63;;;;;;;;;;5061674;28;20104;-91
2021/10/25 11:52:48;;;;;;;8.38;2.90;;;;;;;;;;5032312;28;20091;-91
2021/10/25 11:55:15;;;;;;;6.75;2.97;;;;;;;;;;5033504;28;20021;-91
2021/10/25 11:57:48;;;;;;;3.80;2.33;;;;;;;;;;5032619;28;20036;-91
2021/10/25 12:00:14;;;;;;;8.18;2.38;;;;;;;;;;5052293;28;20025;-91
2021/10/25 12:02:39;;;;;;;5.20;2.40;;;;;;;;;;5033679;28;20018;-91
2021/10/25 12:05:05;;;;;;;4.55;2.28;;;;;;;;;;5035537;28;20025;-91
2021/10/25 12:07:30;;;;;;;7.40;2.38;;;;;;;;;;5035959;28;20369;-91
2021/10/25 12:09:59;;;;;;;5.45;2.30;;;;;;;;;;5069215;28;20017;-91
2021/10/25 12:12:25;;;;;;;5.88;2.70;;;;;;;;;;5069030;28;20013;-91
2021/10/25 12:14:50;;;;;;;4.13;2.17;;;;;;;;;;5057951;28;20022;-91
2021/10/25 12:17:19;;;;;;;3.63;2.08;;;;;;;;;;5032721;28;20027;-91
2021/10/25 12:19:45;;;;;;;4.13;2.20;;;;;;;;;;5035629;28;20370;-92
2021/10/25 12:22:12;;;;;;;6.38;2.53;;;;;;;;;;5035608;28;20030;-92
2021/10/25 12:24:39;;;;;;;4.32;2.35;;;;;;;;;;5068914;28;20026;-92
2021/10/25 12:27:05;;;;;;;3.42;2.00;;;;;;;;;;5035368;28;20029;-92
2021/10/25 12:29:30;;;;;;;6.60;2.25;;;;;;;;;;5035521;28;20009;-92
2021/10/25 12:32:06;;;;;;;4.43;2.00;;;;;;;;;;5068803;28;20047;-91
2021/10/25 12:34:31;;;;;;;5.82;2.25;;;;;;;;;;5035377;28;20064;-91
2021/10/25 12:36:57;;;;;;;8.80;2.33;;;;;;;;;;5068844;28;20026;-91
2021/10/25 12:39:24;;;;;;;7.72;2.55;;;;;;;;;;5035349;28;20021;-92
2021/10/25 12:41:51;;;;;;;4.13;2.58;;;;;;;;;;5058131;28;20394;-92
2021/10/25 12:44:33;;;;;;;7.72;2.20;;;;;;;;;;5030571;28;20065;-92
2021/10/25 12:47:09;;;;;;;4.15;2.25;;;;;;;;;;5035272;28;20025;-91
2021/10/25 12:49:35;;;;;;;8.20;2.55;;;;;;;;;;5068317;28;20041;-91
2021/10/25 12:52:07;;;;;;;6.22;2.20;;;;;;;;;;5058794;28;20026;-91
2021/10/25 12:54:37;;;;;;;5.35;2.60;;;;;;;;;;5032843;28;20037;-91
2021/10/25 12:57:14;;;;;;;5.72;2.75;;;;;;;;;;5023660;28;20022;-91
2021/10/25 12:59:39;;;;;;;6.55;2.22;;;;;;;;;;5034890;28;20049;-90
2021/10/25 13:02:09;;;;;;;8.50;2.63;;;;;;;;;;5034957;28;20026;-91
2021/10/25 13:04:34;;;;;;;8.48;2.50;;;;;;;;;;5035882;28;20100;-91
2021/10/25 13:07:15;;;;;;;8.23;3.22;;;;;;;;;;5034039;28;20052;-91
2021/10/25 13:09:46;;;;;;;3.97;2.13;;;;;;;;;;5068299;28;20415;-91
2021/10/25 13:12:11;;;;;;;9.00;2.73;;;;;;;;;;5033839;28;20021;-91
2021/10/25 13:14:37;;;;;;;5.97;2.50;;;;;;;;;;5034258;28;20316;-91
2021/10/25 13:17:02;;;;;;;7.55;2.67;;;;;;;;;;5034314;28;20534;-91
2021/10/25 13:19:28;;;;;;;8.80;2.58;;;;;;;;;;5034216;28;20048;-91
2021/10/25 13:21:53;;;;;;;4.47;2.00;;;;;;;;;;5034587;28;20041;-92
2021/10/25 13:24:18;;;;;;;5.00;2.50;;;;;;;;;;5034507;28;20102;-92
2021/10/25 13:26:44;;;;;;;8.90;2.65;;;;;;;;;;5067756;28;20017;-91
2021/10/25 13:29:09;;;;;;;7.22;2.40;;;;;;;;;;5067691;28;20064;-91
2021/10/25 13:31:35;;;;;;;5.80;2.47;;;;;;;;;;5067607;28;20018;-91
2021/10/25 13:34:00;;;;;;;7.47;2.78;;;;;;;;;;5034148;28;20113;-91
2021/10/25 13:36:26;;;;;;;6.88;2.70;;;;;;;;;;5030642;28;20084;-91
2021/10/25 13:38:51;;;;;;;13.43;3.33;;;;;;;;;;5060134;28;20083;-91
2021/10/25 13:41:18;;;;;;;7.38;2.45;;;;;;;;;;5067283;28;20024;-91
2021/10/25 13:43:43;;;;;;;3.97;2.22;;;;;;;;;;5033971;28;20120;-91
2021/10/25 13:46:08;;;;;;;7.65;2.30;;;;;;;;;;5064366;28;20487;-91
2021/10/25 13:48:33;;;;;;;5.32;2.55;;;;;;;;;;5023014;28;20024;-91
2021/10/25 13:50:59;;;;;;;7.13;2.58;;;;;;;;;;5033297;28;20044;-91
2021/10/25 13:53:25;;;;;;;4.63;2.47;;;;;;;;;;5020781;28;20017;-91
2021/10/25 13:55:50;;;;;;;6.03;2.45;;;;;;;;;;5033966;28;20028;-91
2021/10/25 13:58:16;;;;;;;9.50;2.90;;;;;;;;;;5033768;28;20017;-91
2021/10/25 14:00:41;;;;;;;4.68;2.95;;;;;;;;;;5033819;28;20032;-91
2021/10/25 14:03:06;;;;;;;6.78;2.33;;;;;;;;;;5066890;28;20036;-91
2021/10/25 14:05:32;;;;;;;5.63;2.35;;;;;;;;;;5033871;28;20369;-90
2021/10/25 14:07:57;;;;;;;7.97;2.17;;;;;;;;;;5033890;28;20028;-91
2021/10/25 14:12:51;;;;;;;7.18;2.50;;;;;;;;;;5023426;28;20457;-91
2021/10/25 14:15:20;;;;;;;5.80;2.45;;;;;;;;;;5033368;28;20112;-92
2021/10/25 14:17:46;;;;;;;7.22;2.50;;;;;;;;;;5066794;28;20044;-91
2021/10/25 14:20:12;;;;;;;6.40;2.25;;;;;;;;;;5066831;28;20033;-91
2021/10/25 14:22:37;;;;;;;7.30;3.15;;;;;;;;;;5034479;28;20021;-91
2021/10/25 14:25:03;;;;;;;11.00;2.78;;;;;;;;;;5065403;28;20021;-91
2021/10/25 14:27:28;;;;;;;4.00;2.58;;;;;;;;;;5033076;28;20081;-91
2021/10/25 14:29:53;;;;;;;6.80;2.42;;;;;;;;;;5034336;28;20412;-91
2021/10/25 14:32:19;;;;;;;6.05;2.58;;;;;;;;;;5033534;28;20017;-91
2021/10/25 14:34:44;;;;;;;9.18;2.30;;;;;;;;;;5066555;28;20362;-92
2021/10/25 14:37:10;;;;;;;4.47;2.35;;;;;;;;;;5066434;28;20095;-91
2021/10/25 14:39:47;;;;;;;5.35;2.30;;;;;;;;;;5029684;28;20025;-91
2021/10/25 14:55:15;;;;;;;6.43;2.50;;;;;;;;;;5021486;28;20480;-91
2021/10/25 14:57:40;;;;;;;5.72;2.55;;;;;;;;;;5033043;28;20025;-91
2021/10/25 15:00:06;;;;;;;5.13;2.45;;;;;;;;;;5032720;28;20035;-91
2021/10/25 15:02:32;;;;;;;8.57;2.88;;;;;;;;;;5021448;28;20061;-91
2021/10/25 15:04:59;;;;;;;4.75;2.38;;;;;;;;;;5032481;28;20057;-91
2021/10/25 15:07:25;;;;;;;9.60;2.70;;;;;;;;;;5033985;28;20037;-92
2021/10/25 15:09:51;;;;;;;4.88;2.20;;;;;;;;;;5053292;28;20128;-92
2021/10/25 15:12:17;;;;;;;5.50;1.98;;;;;;;;;;5031910;28;20056;-91
2021/10/25 15:14:43;;;;;;;4.07;2.17;;;;;;;;;;5032918;28;20136;-91
2021/10/25 15:17:09;;;;;;;5.25;2.45;;;;;;;;;;5065825;28;20021;-91
2021/10/25 15:19:38;;;;;;;8.02;2.70;;;;;;;;;;5029482;28;20032;-91
2021/10/25 15:22:05;;;;;;;5.30;2.20;;;;;;;;;;5031694;28;20060;-91
2021/10/25 15:24:30;;;;;;;7.18;2.42;;;;;;;;;;5019450;28;20057;-91
2021/10/25 15:26:56;;;;;;;9.23;2.42;;;;;;;;;;5032959;28;20021;-90
2021/10/25 15:29:21;;;;;;;4.15;2.13;;;;;;;;;;5032301;28;20022;-91
2021/10/25 15:31:47;;;;;;;7.50;3.45;;;;;;;;;;5032664;28;20172;-90
2021/10/25 15:34:12;;;;;;;6.82;2.80;;;;;;;;;;5065922;28;20473;-91
2021/10/25 15:36:37;;;;;;;6.40;2.50;;;;;;;;;;5035090;28;20572;-92
2021/10/25 15:39:02;;;;;;;6.03;2.65;;;;;;;;;;5043817;28;20013;-92
2021/10/25 15:41:28;;;;;;;4.78;2.55;;;;;;;;;;5030959;28;20014;-91
2021/10/25 15:43:54;;;;;;;4.40;2.42;;;;;;;;;;5029630;28;20057;-91
2021/10/25 15:46:20;;;;;;;7.32;2.40;;;;;;;;;;5069379;28;20018;-91
2021/10/25 15:48:45;;;;;;;6.55;2.70;;;;;;;;;;5035110;28;20067;-91
2021/10/25 15:51:14;;;;;;;11.20;2.75;;;;;;;;;;5035131;28;20026;-91
2021/10/25 15:53:39;;;;;;;6.65;2.85;;;;;;;;;;5044285;28;20017;-91
2021/10/25 15:56:04;;;;;;;6.88;2.90;;;;;;;;;;5035976;28;20117;-90
2021/10/25 15:58:30;;;;;;;9.63;2.97;;;;;;;;;;5037140;28;20026;-90
2021/10/25 16:00:55;;;;;;;10.85;3.20;;;;;;;;;;5036050;28;20064;-91
2021/10/25 16:03:21;;;;;;;6.38;2.97;;;;;;;;;;5035793;28;20028;-91
2021/10/25 16:05:46;;;;;;;6.97;3.47;;;;;;;;;;5036568;28;20036;-91
2021/10/25 16:08:15;;;;;;;6.45;3.95;;;;;;;;;;5069157;28;20072;-91
2021/10/25 16:10:40;;;;;;;11.02;4.13;;;;;;;;;;5035679;28;20018;-91
2021/10/25 16:13:05;;;;;;;6.90;3.60;;;;;;;;;;5069149;28;20025;-91
2021/10/25 16:15:31;;;;;;;7.65;3.78;;;;;;;;;;5035752;28;20018;-91
2021/10/25 16:17:56;;;;;;;8.27;3.75;;;;;;;;;;5035497;28;20112;-91
2021/10/25 16:20:22;;;;;;;7.68;3.72;;;;;;;;;;5035499;28;20473;-90
2021/10/25 16:22:47;;;;;;;8.00;3.60;;;;;;;;;;5036383;28;20516;-91
2021/10/25 16:25:12;;;;;;;9.60;3.70;;;;;;;;;;5035398;28;20033;-91
2021/10/25 16:27:40;;;;;;;13.32;5.82;;;;;;;;;;5068823;28;20079;-91
2021/10/25 16:30:10;;;;;;;9.85;5.28;;;;;;;;;;5032228;28;20018;-91
2021/10/25 16:32:35;;;;;;;14.27;6.10;;;;;;;;;;5033071;28;20029;-91